createdAt,value
2022-11-15T00:01:26.578Z,96824.44
2022-11-15T00:06:27.024Z,96818.97
2022-11-15T00:11:20.814Z,96812.75
2022-11-15T00:16:14.186Z,96826.41
2022-11-15T00:21:12.803Z,96821.13
2022-11-15T00:26:06.900Z,96821.94
2022-11-15T00:31:04.142Z,96816.31
2022-11-15T00:36:08.803Z,96818.81
2022-11-15T00:41:10.276Z,96805.47
2022-11-15T00:46:06.868Z,96809.97
2022-11-15T00:51:04.425Z,96809.22
2022-11-15T00:55:57.913Z,96803.16
2022-11-15T01:00:57.199Z,96797.50
2022-11-15T01:05:52.280Z,96792.81
2022-11-15T01:10:45.708Z,96803.16
2022-11-15T01:15:42.839Z,96795.31
2022-11-15T01:20:47.153Z,96796.75
2022-11-15T01:25:47.874Z,96787.56
2022-11-15T01:30:45.754Z,96778.59
2022-11-15T01:35:55.613Z,96770.47
2022-11-15T01:40:52.181Z,96772.66
2022-11-15T01:46:01.345Z,96766.19
2022-11-15T01:50:58.277Z,96761.34
2022-11-15T01:55:52.095Z,96757.50
2022-11-15T02:00:47.752Z,96748.19
2022-11-15T02:05:52.121Z,96743.31
2022-11-15T02:10:52.765Z,96736.91
2022-11-15T02:16:22.491Z,96739.41
2022-11-15T02:21:31.749Z,96741.50
2022-11-15T02:27:36.454Z,96727.66
2022-11-15T02:32:44.633Z,96706.78
2022-11-15T02:37:50.830Z,96708.34
2022-11-15T02:43:12.523Z,96703.41
2022-11-15T02:48:24.431Z,96703.72
2022-11-15T02:53:26.676Z,96708.22
2022-11-15T02:59:14.375Z,96714.88
2022-11-15T03:04:27.513Z,96719.44
2022-11-15T03:09:36.197Z,96703.53
2022-11-15T03:14:40.765Z,96705.38
2022-11-15T03:19:52.314Z,96699.97
2022-11-15T03:24:49.062Z,96693.19
2022-11-15T03:29:55.583Z,96680.16
2022-11-15T03:35:04.643Z,96688.50
2022-11-15T03:40:00.692Z,96673.78
2022-11-15T03:45:04.598Z,96678.09
2022-11-15T03:50:13.152Z,96678.78
2022-11-15T03:55:12.724Z,96677.56
2022-11-15T04:00:08.210Z,96680.34
2022-11-15T04:05:05.004Z,96675.66
2022-11-15T04:10:07.074Z,96679.13
2022-11-15T04:15:11.866Z,96659.72
2022-11-15T04:20:31.864Z,96659.28
2022-11-15T04:25:32.028Z,96659.28
2022-11-15T04:30:25.661Z,96656.78
2022-11-15T04:35:20.386Z,96656.16
2022-11-15T04:40:16.384Z,96649.34
2022-11-15T04:45:11.891Z,96645.19
2022-11-15T04:50:10.113Z,96653.97
2022-11-15T04:55:08.526Z,96654.56
2022-11-15T05:00:13.867Z,96653.00
2022-11-15T05:05:08.329Z,96657.91
2022-11-15T05:10:01.711Z,96655.00
2022-11-15T05:14:56.440Z,96656.56
2022-11-15T05:19:49.873Z,96658.75
2022-11-15T05:24:45.483Z,96655.31
2022-11-15T05:29:39.246Z,96640.81
2022-11-15T05:34:34.676Z,96640.28
2022-11-15T05:39:28.007Z,96639.88
2022-11-15T05:44:27.410Z,96634.56
2022-11-15T05:49:27.095Z,96627.97
2022-11-15T05:54:25.594Z,96625.38
2022-11-15T05:59:22.675Z,96616.41
2022-11-15T06:04:18.932Z,96622.53
2022-11-15T06:09:12.932Z,96635.47
2022-11-15T06:14:08.137Z,96634.66
2022-11-15T06:19:05.556Z,96635.28
2022-11-15T06:23:59.105Z,96635.59
2022-11-15T06:28:52.596Z,96630.47
2022-11-15T06:33:47.345Z,96623.91
2022-11-15T06:38:43.566Z,96622.75
2022-11-15T06:43:38.780Z,96617.66
2022-11-15T06:48:33.699Z,96626.84
2022-11-15T06:53:33.840Z,96614.41
2022-11-15T06:58:27.604Z,96624.94
2022-11-15T07:03:21.051Z,96614.41
2022-11-15T07:08:14.347Z,96618.06
2022-11-15T07:13:09.089Z,96616.19
2022-11-15T07:18:03.445Z,96619.41
2022-11-15T07:23:03.231Z,96615.66
2022-11-15T07:28:01.496Z,96622.22
2022-11-15T07:32:59.398Z,96614.59
2022-11-15T07:37:57.940Z,96614.31
2022-11-15T07:42:58.113Z,96617.44
2022-11-15T07:47:52.209Z,96605.72
2022-11-15T07:52:47.463Z,96618.00
2022-11-15T07:57:40.852Z,96617.09
2022-11-15T08:02:34.594Z,96610.84
2022-11-15T08:07:32.465Z,96599.09
2022-11-15T08:12:27.396Z,96602.59
2022-11-15T08:17:20.730Z,96598.91
2022-11-15T08:22:14.115Z,96600.09
2022-11-15T08:27:15.732Z,96596.88
2022-11-15T08:32:11.168Z,96594.88
2022-11-15T08:37:04.388Z,96596.84
2022-11-15T08:41:57.881Z,96591.03
2022-11-15T08:46:51.335Z,96584.44
2022-11-15T08:51:46.090Z,96574.06
2022-11-15T08:56:39.648Z,96566.66
2022-11-15T09:01:33.668Z,96559.44
2022-11-15T09:06:27.176Z,96573.50
2022-11-15T09:11:25.504Z,96571.47
2022-11-15T09:16:22.055Z,96583.50
2022-11-15T09:21:18.256Z,96584.25
2022-11-15T09:26:15.936Z,96565.41
2022-11-15T09:31:14.189Z,96567.69
2022-11-15T09:36:12.488Z,96576.06
2022-11-15T09:41:43.214Z,96584.00
2022-11-15T09:47:06.445Z,96586.69
2022-11-15T09:52:22.148Z,96571.63
2022-11-15T09:57:19.951Z,96563.84
2022-11-15T10:02:46.876Z,96553.69
2022-11-15T10:07:54.509Z,96558.91
2022-11-15T10:12:53.828Z,96561.38
2022-11-15T10:18:19.769Z,96560.31
2022-11-15T10:23:22.536Z,96562.63
2022-11-15T10:28:30.273Z,96548.16
2022-11-15T10:33:34.968Z,96530.44
2022-11-15T10:38:29.775Z,96522.28
2022-11-15T10:43:27.240Z,96515.94
2022-11-15T10:48:31.122Z,96508.78
2022-11-15T10:53:35.189Z,96508.22
2022-11-15T10:58:45.506Z,96505.97
2022-11-15T11:03:43.098Z,96501.16
2022-11-15T11:08:39.134Z,96484.56
2022-11-15T11:13:38.104Z,96481.50
2022-11-15T11:18:40.478Z,96483.63
2022-11-15T11:23:54.345Z,96476.34
2022-11-15T11:29:18.291Z,96475.44
2022-11-15T11:34:21.963Z,96481.06
2022-11-15T11:39:38.862Z,96482.19
2022-11-15T11:44:45.155Z,96468.31
2022-11-15T11:49:48.409Z,96459.31
2022-11-15T11:55:03.173Z,96460.50
2022-11-15T12:00:06.208Z,96455.31
2022-11-15T12:05:14.023Z,96453.88
2022-11-15T12:10:24.799Z,96454.63
2022-11-15T12:15:24.307Z,96448.09
2022-11-15T12:20:21.710Z,96437.28
2022-11-15T12:25:23.596Z,96425.84
2022-11-15T12:30:20.865Z,96417.88
2022-11-15T12:35:29.440Z,96423.72
2022-11-15T12:40:37.323Z,96420.03
2022-11-15T12:45:34.323Z,96398.88
2022-11-15T12:50:57.207Z,96398.16
2022-11-15T12:56:25.967Z,96373.31
2022-11-15T13:02:04.641Z,96376.84
2022-11-15T13:07:01.899Z,96368.56
2022-11-15T13:11:58.036Z,96362.19
2022-11-15T13:16:59.054Z,96343.16
2022-11-15T13:22:10.769Z,96333.88
2022-11-15T13:27:19.108Z,96341.56
2022-11-15T13:32:15.362Z,96332.31
2022-11-15T13:37:29.885Z,96337.28
2022-11-15T13:42:24.659Z,96325.44
2022-11-15T13:47:21.819Z,96317.59
2022-11-15T13:52:18.007Z,96317.50
2022-11-15T13:57:18.722Z,96294.41
2022-11-15T14:02:19.026Z,96287.97
2022-11-15T14:07:20.722Z,96273.53
2022-11-15T14:12:32.814Z,96267.81
2022-11-15T14:17:45.638Z,96263.03
2022-11-15T14:22:54.435Z,96255.66
2022-11-15T14:28:18.053Z,96253.50
2022-11-15T14:33:27.702Z,96247.56
2022-11-15T14:38:20.970Z,96242.53
2022-11-15T14:43:16.146Z,96237.16
2022-11-15T14:48:09.737Z,96234.41
2022-11-15T14:53:03.853Z,96242.59
2022-11-15T14:57:57.644Z,96238.19
2022-11-15T15:02:56.168Z,96224.25
2022-11-15T15:07:50.049Z,96215.25
2022-11-15T15:12:45.345Z,96207.34
2022-11-15T15:17:38.690Z,96196.94
2022-11-15T15:22:33.621Z,96183.78
2022-11-15T15:27:26.942Z,96174.66
2022-11-15T15:32:20.204Z,96170.75
2022-11-15T15:37:26.076Z,96165.50
2022-11-15T15:42:21.692Z,96156.84
2022-11-15T15:47:17.609Z,96158.63
2022-11-15T15:52:10.893Z,96146.75
2022-11-15T15:57:04.314Z,96133.22
2022-11-15T16:01:58.958Z,96118.25
2022-11-15T16:06:53.878Z,96110.28
2022-11-15T16:11:48.675Z,96094.72
2022-11-15T16:16:41.956Z,96085.94
2022-11-15T16:21:39.391Z,96078.09
2022-11-15T16:26:39.146Z,96069.09
2022-11-15T16:31:32.557Z,96065.38
2022-11-15T16:36:31.274Z,96070.44
2022-11-15T16:41:26.092Z,96076.50
2022-11-15T16:46:22.094Z,96065.53
2022-11-15T16:51:16.282Z,96054.25
2022-11-15T16:56:23.958Z,96047.22
2022-11-15T17:01:24.616Z,96033.88
2022-11-15T17:06:18.925Z,96028.63
2022-11-15T17:11:17.953Z,96033.56
2022-11-15T17:16:14.452Z,96028.59
2022-11-15T17:21:14.381Z,96042.13
2022-11-15T17:26:28.307Z,96024.97
2022-11-15T17:31:22.097Z,96014.59
2022-11-15T17:36:16.932Z,95998.50
2022-11-15T17:41:15.535Z,95988.59
2022-11-15T17:46:13.025Z,95978.72
2022-11-15T17:51:12.140Z,95973.34
2022-11-15T17:56:10.422Z,95972.53
2022-11-15T18:01:08.862Z,95968.41
2022-11-15T18:06:02.277Z,95966.88
2022-11-15T18:11:07.917Z,95957.69
2022-11-15T18:16:03.827Z,95955.09
2022-11-15T18:21:03.718Z,95949.34
2022-11-15T18:25:57.043Z,95948.66
2022-11-15T18:30:51.736Z,95950.19
2022-11-15T18:35:45.133Z,95931.59
2022-11-15T18:40:38.392Z,95927.34
2022-11-15T18:45:32.106Z,95924.59
2022-11-15T18:50:26.796Z,95927.22
2022-11-15T18:55:20.372Z,95913.88
2022-11-15T19:00:15.758Z,95909.09
2022-11-15T19:05:09.602Z,95898.88
2022-11-15T19:10:04.713Z,95886.78
2022-11-15T19:14:58.052Z,95881.13
2022-11-15T19:19:51.759Z,95881.78
2022-11-15T19:24:45.207Z,95866.31
2022-11-15T19:29:40.572Z,95879.66
2022-11-15T19:34:33.827Z,95864.41
2022-11-15T19:39:27.160Z,95844.72
2022-11-15T19:44:20.920Z,95848.59
2022-11-15T19:49:15.599Z,95841.31
2022-11-15T19:54:10.321Z,95849.41
2022-11-15T19:59:04.924Z,95834.25
2022-11-15T20:04:03.092Z,95821.63
2022-11-15T20:09:01.231Z,95816.41
2022-11-15T20:13:59.437Z,95804.03
2022-11-15T20:19:04.789Z,95796.88
2022-11-15T20:24:40.966Z,95796.56
2022-11-15T20:29:43.908Z,95783.41
2022-11-15T20:34:43.557Z,95777.47
2022-11-15T20:39:37.120Z,95774.69
2022-11-15T20:44:36.800Z,95755.31
2022-11-15T20:49:31.521Z,95760.81
2022-11-15T20:54:27.044Z,95751.91
2022-11-15T20:59:20.482Z,95762.84
2022-11-15T21:04:15.193Z,95751.34
2022-11-15T21:09:26.176Z,95746.59
2022-11-15T21:14:19.745Z,95745.66
2022-11-15T21:19:14.853Z,95744.69
2022-11-15T21:24:10.719Z,95738.78
2022-11-15T21:29:04.881Z,95734.41
2022-11-15T21:33:58.187Z,95738.13
2022-11-15T21:38:53.689Z,95737.16
2022-11-15T21:43:46.923Z,95735.41
2022-11-15T21:48:40.220Z,95756.47
2022-11-15T21:53:34.450Z,95764.88
2022-11-15T21:58:31.085Z,95761.72
2022-11-15T22:03:25.131Z,95764.06
2022-11-15T22:08:18.404Z,95759.50
2022-11-15T22:13:11.698Z,95754.56
2022-11-15T22:18:06.845Z,95765.03
2022-11-15T22:23:01.629Z,95765.44
2022-11-15T22:27:55.860Z,95755.94
2022-11-15T22:32:49.986Z,95745.34
2022-11-15T22:37:46.633Z,95743.28
2022-11-15T22:42:40.122Z,95749.50
2022-11-15T22:47:33.616Z,95756.06
2022-11-15T22:52:27.152Z,95759.94
2022-11-15T22:57:22.012Z,95762.81
2022-11-15T23:02:18.449Z,95760.63
2022-11-15T23:07:12.030Z,95760.34
2022-11-15T23:12:23.362Z,95761.44
2022-11-15T23:17:18.344Z,95764.63
2022-11-15T23:22:31.648Z,95767.94
2022-11-15T23:27:25.420Z,95762.56
2022-11-15T23:32:37.517Z,95756.34
2022-11-15T23:37:31.060Z,95754.56
2022-11-15T23:42:24.638Z,95759.22
2022-11-15T23:47:20.077Z,95767.94
2022-11-15T23:52:15.382Z,95758.28
2022-11-15T23:57:11.997Z,95763.38
